Time;durP1;ratioP1;P1;durP2;ratioP2;P2;SDS_P1;SDS_P2;PMS_P1;PMS_P2;Temp;Humidity;BMP_temperature;BMP_pressure;BME280_temperature;BME280_humidity;BME280_pressure;Samples;Min_cycle;Max_cycle;Signal;HPM_P1;HPM_P2
2021/12/30 00:00:23;;;;;;;52.72;24.00;;;9.30;99.90;;;;;;5075544;28;20036;-57
2021/12/30 00:02:50;;;;;;;56.42;25.10;;;9.30;99.90;;;;;;5075394;28;20039;-57
2021/12/30 00:05:16;;;;;;;59.72;23.77;;;9.40;99.90;;;;;;5075004;28;20024;-56
2021/12/30 00:07:42;;;;;;;53.33;24.13;;;9.40;99.90;;;;;;5057530;28;20066;-54
2021/12/30 00:10:09;;;;;;;53.45;22.45;;;9.40;99.90;;;;;;5074741;28;20082;-58
2021/12/30 00:12:36;;;;;;;52.20;22.83;;;9.50;99.90;;;;;;5074658;28;20082;-57
2021/12/30 00:15:04;;;;;;;49.65;22.98;;;9.50;99.90;;;;;;5074706;28;20061;-56
2021/12/30 00:17:29;;;;;;;50.65;21.05;;;9.50;99.90;;;;;;5074230;28;20029;-56
2021/12/30 00:19:55;;;;;;;47.42;20.95;;;9.40;99.90;;;;;;5074844;28;20402;-58
2021/12/30 00:22:21;;;;;;;47.58;20.17;;;9.50;99.90;;;;;;5074139;28;20036;-56
2021/12/30 00:24:46;;;;;;;52.70;19.42;;;9.40;99.90;;;;;;5078023;28;20073;-52
2021/12/30 00:27:12;;;;;;;56.63;20.10;;;9.50;99.90;;;;;;5075533;28;20107;-57
2021/12/30 00:29:37;;;;;;;48.08;18.45;;;9.50;99.90;;;;;;5074949;28;20035;-53
2021/12/30 00:32:04;;;;;;;51.10;18.83;;;9.50;99.90;;;;;;5075059;28;20444;-54
2021/12/30 00:34:30;;;;;;;52.88;18.92;;;9.50;99.90;;;;;;5075481;28;20469;-58
2021/12/30 00:36:55;;;;;;;57.72;18.35;;;9.50;99.90;;;;;;5074833;28;20161;-54
2021/12/30 00:39:21;;;;;;;45.28;18.20;;;9.50;99.90;;;;;;5074610;28;20495;-56
2021/12/30 00:41:47;;;;;;;44.65;17.80;;;9.50;99.90;;;;;;5074596;28;20074;-56
2021/12/30 00:44:12;;;;;;;52.90;17.90;;;9.50;99.90;;;;;;5056826;28;20033;-57
2021/12/30 00:46:38;;;;;;;48.42;18.73;;;9.40;99.90;;;;;;5075098;28;20085;-53
2021/12/30 00:49:04;;;;;;;42.10;16.23;;;9.40;99.90;;;;;;5074829;28;20028;-58
2021/12/30 00:51:29;;;;;;;40.35;16.70;;;9.40;99.90;;;;;;5056415;28;20028;-57
2021/12/30 00:53:55;;;;;;;53.75;16.85;;;9.30;99.90;;;;;;5074696;28;20021;-57
2021/12/30 00:56:21;;;;;;;36.33;16.65;;;9.30;99.90;;;;;;5074332;28;20032;-53
2021/12/30 00:58:46;;;;;;;51.97;17.15;;;9.20;99.90;;;;;;5074387;28;20473;-55
2021/12/30 01:01:12;;;;;;;43.30;16.40;;;9.20;99.90;;;;;;5074579;28;20397;-54
2021/12/30 01:03:37;;;;;;;41.25;16.60;;;9.30;99.90;;;;;;5073714;28;20128;-58
2021/12/30 01:06:04;;;;;;;41.38;16.88;;;9.20;99.90;;;;;;5074097;28;20036;-58
2021/12/30 01:08:30;;;;;;;46.80;16.77;;;9.20;99.90;;;;;;5073930;28;20021;-57
2021/12/30 01:13:27;;;;;;;54.40;17.20;;;9.20;99.90;;;;;;5058048;28;20036;-70
2021/12/30 01:16:00;;;;;;;49.55;17.10;;;9.20;99.90;;;;;;5059189;28;20021;-68
2021/12/30 01:18:42;;;;;;;45.25;16.10;;;9.20;99.90;;;;;;5040990;28;20021;-68
2021/12/30 01:21:11;;;;;;;38.08;15.98;;;9.20;99.90;;;;;;5059216;28;20092;-69
2021/12/30 01:23:41;;;;;;;42.15;15.32;;;9.20;99.90;;;;;;5059451;28;20024;-69
2021/12/30 01:26:07;;;;;;;42.03;14.45;;;9.20;99.90;;;;;;5058271;28;20485;-68
2021/12/30 01:28:32;;;;;;;44.60;16.02;;;9.20;99.90;;;;;;5058251;28;20024;-69
2021/12/30 01:30:58;;;;;;;43.45;14.93;;;9.10;99.90;;;;;;5057594;28;20543;-69
2021/12/30 01:33:24;;;;;;;46.95;13.82;;;9.10;99.90;;;;;;5059108;28;20535;-70
2021/12/30 01:35:50;;;;;;;44.15;13.65;;;9.10;99.90;;;;;;5059027;28;20108;-69
2021/12/30 01:38:16;;;;;;;44.70;13.15;;;9.10;99.90;;;;;;5057042;28;20061;-69
2021/12/30 01:40:46;;;;;;;39.67;12.52;;;9.10;99.90;;;;;;5057286;28;20040;-69
2021/12/30 01:43:12;;;;;;;39.85;13.32;;;9.10;99.90;;;;;;5039967;28;20025;-69
2021/12/30 01:45:39;;;;;;;48.80;13.25;;;9.00;99.90;;;;;;5057141;28;20466;-68
2021/12/30 01:48:05;;;;;;;46.60;12.80;;;9.10;99.90;;;;;;5057842;28;20044;-69
2021/12/30 01:50:31;;;;;;;39.03;11.68;;;9.10;99.90;;;;;;5057347;28;20071;-69
2021/12/30 01:52:58;;;;;;;42.83;11.35;;;9.10;99.90;;;;;;5058039;28;20025;-69
2021/12/30 01:55:26;;;;;;;42.05;14.05;;;9.10;99.90;;;;;;5060475;28;20021;-69
2021/12/30 01:57:51;;;;;;;47.45;12.85;;;9.00;99.90;;;;;;5056673;28;20059;-69
2021/12/30 02:00:21;;;;;;;43.80;12.82;;;8.90;99.90;;;;;;5056058;28;20032;-69
2021/12/30 02:02:47;;;;;;;46.75;12.45;;;8.90;99.90;;;;;;5057907;28;20394;-69
2021/12/30 02:05:13;;;;;;;44.03;12.68;;;9.00;99.90;;;;;;5059785;28;20031;-69
2021/12/30 02:07:39;;;;;;;49.47;12.40;;;9.00;99.90;;;;;;5056528;28;20037;-69
2021/12/30 02:10:06;;;;;;;35.15;12.43;;;9.00;99.90;;;;;;5056820;28;20521;-69
2021/12/30 02:12:34;;;;;;;44.33;12.65;;;9.00;99.90;;;;;;5039773;28;20107;-69
2021/12/30 02:15:00;;;;;;;47.08;13.00;;;8.90;99.90;;;;;;5057062;28;20028;-69
2021/12/30 02:17:26;;;;;;;48.72;12.95;;;9.00;99.90;;;;;;5056455;28;20024;-69
2021/12/30 02:19:57;;;;;;;38.38;12.20;;;9.00;99.90;;;;;;5055795;28;20116;-69
2021/12/30 02:22:23;;;;;;;50.55;13.20;;;9.00;99.90;;;;;;5056162;28;20064;-69
2021/12/30 02:24:49;;;;;;;48.17;13.77;;;9.10;99.90;;;;;;5055768;28;20028;-69
2021/12/30 02:27:15;;;;;;;47.60;13.50;;;9.10;99.90;;;;;;5055966;28;20028;-70
2021/12/30 02:29:41;;;;;;;53.20;14.60;;;9.10;99.90;;;;;;5056884;28;20355;-68
2021/12/30 02:32:07;;;;;;;50.35;13.27;;;9.10;99.90;;;;;;5040300;28;20331;-69
2021/12/30 02:34:33;;;;;;;45.00;15.75;;;9.10;99.90;;;;;;5056433;28;20025;-69
2021/12/30 02:36:58;;;;;;;49.85;16.85;;;9.20;99.90;;;;;;5055480;28;20100;-69
2021/12/30 02:39:24;;;;;;;57.80;17.05;;;9.20;99.90;;;;;;5056053;28;20041;-69
2021/12/30 02:41:51;;;;;;;49.92;15.13;;;9.20;99.90;;;;;;5055864;28;20434;-69
2021/12/30 02:44:17;;;;;;;42.50;15.40;;;9.10;99.90;;;;;;5055640;28;20029;-69
2021/12/30 02:46:43;;;;;;;53.50;17.70;;;9.00;99.90;;;;;;5055766;28;20029;-69
2021/12/30 02:49:09;;;;;;;50.05;16.02;;;8.90;99.90;;;;;;5056255;28;20029;-69
2021/12/30 02:51:36;;;;;;;61.67;16.70;;;8.90;99.90;;;;;;5056026;28;20390;-69
2021/12/30 02:54:03;;;;;;;52.03;16.58;;;8.90;99.90;;;;;;5055813;28;20474;-70
2021/12/30 02:56:30;;;;;;;46.60;16.58;;;8.90;99.90;;;;;;5056016;28;20474;-70
2021/12/30 02:58:56;;;;;;;53.25;16.17;;;8.80;99.90;;;;;;5056495;28;20021;-69
2021/12/30 03:01:27;;;;;;;49.92;15.20;;;8.80;99.90;;;;;;5055666;28;20108;-69
2021/12/30 03:03:53;;;;;;;53.45;15.00;;;8.80;99.90;;;;;;5038399;28;20045;-69
2021/12/30 03:06:18;;;;;;;55.92;15.15;;;8.80;99.90;;;;;;5037634;28;20040;-67
2021/12/30 03:08:49;;;;;;;50.05;15.10;;;8.80;99.90;;;;;;5040016;28;20048;-69
2021/12/30 03:11:15;;;;;;;53.10;15.00;;;8.80;99.90;;;;;;5058758;28;20050;-69
2021/12/30 03:13:43;;;;;;;50.58;14.50;;;8.80;99.90;;;;;;5057066;28;20035;-69
2021/12/30 03:16:12;;;;;;;45.65;14.35;;;8.80;99.90;;;;;;5058039;28;20025;-68
2021/12/30 03:18:40;;;;;;;60.67;16.52;;;8.70;99.90;;;;;;5056249;28;20551;-68
2021/12/30 03:21:08;;;;;;;57.00;19.45;;;8.70;99.90;;;;;;5055633;28;20029;-68
2021/12/30 03:23:33;;;;;;;56.85;19.00;;;8.70;99.90;;;;;;5055095;28;20182;-69
2021/12/30 03:25:59;;;;;;;58.50;18.55;;;8.70;99.90;;;;;;5037746;28;20484;-68
2021/12/30 03:28:25;;;;;;;52.50;16.15;;;8.70;99.90;;;;;;5055695;28;20029;-69
2021/12/30 03:30:51;;;;;;;60.30;15.82;;;8.70;99.90;;;;;;5040891;28;20025;-69
2021/12/30 03:33:23;;;;;;;55.53;13.95;;;8.80;99.90;;;;;;5057723;28;20561;-69
2021/12/30 03:35:48;;;;;;;56.00;13.90;;;8.70;99.90;;;;;;5055564;28;20421;-69
2021/12/30 03:38:14;;;;;;;48.67;12.50;;;8.80;99.90;;;;;;5055984;28;20039;-69
2021/12/30 03:40:40;;;;;;;43.88;11.45;;;8.80;99.90;;;;;;5055968;28;20037;-69
2021/12/30 03:43:05;;;;;;;52.50;12.50;;;8.80;99.90;;;;;;5056477;28;20029;-69
2021/12/30 03:45:31;;;;;;;49.70;11.27;;;8.80;99.90;;;;;;5058202;28;20478;-68
2021/12/30 03:47:57;;;;;;;51.45;10.27;;;8.80;99.90;;;;;;5057520;28;20033;-68
2021/12/30 03:50:25;;;;;;;46.55;10.90;;;8.80;99.90;;;;;;5040729;28;20025;-69
2021/12/30 03:52:54;;;;;;;58.25;11.43;;;8.80;99.90;;;;;;5062981;28;20041;-69
2021/12/30 03:55:21;;;;;;;51.35;10.65;;;8.90;99.90;;;;;;5064098;28;20481;-69
2021/12/30 03:57:48;;;;;;;62.47;10.95;;;8.80;99.90;;;;;;5062369;28;20047;-70
2021/12/30 04:00:14;;;;;;;51.03;9.43;;;8.80;99.90;;;;;;5042384;28;20033;-69
2021/12/30 04:02:40;;;;;;;53.08;9.30;;;8.80;99.90;;;;;;5058370;28;20021;-69
2021/12/30 04:05:07;;;;;;;50.13;10.80;;;8.80;99.90;;;;;;5040985;28;20436;-70
2021/12/30 04:07:33;;;;;;;53.50;8.65;;;8.80;99.90;;;;;;5040680;28;20024;-69
2021/12/30 04:09:58;;;;;;;47.70;8.73;;;8.80;99.90;;;;;;5057845;28;20082;-68
2021/12/30 04:12:24;;;;;;;50.42;8.80;;;8.80;99.90;;;;;;5057907;28;20086;-68
2021/12/30 04:14:50;;;;;;;49.08;8.70;;;8.80;99.90;;;;;;5057698;28;20130;-68
2021/12/30 04:17:16;;;;;;;54.42;10.07;;;8.70;99.90;;;;;;5058158;28;20017;-68
2021/12/30 04:19:41;;;;;;;53.85;9.48;;;8.80;99.90;;;;;;5057341;28;20331;-69
2021/12/30 04:22:07;;;;;;;56.58;8.50;;;8.80;99.90;;;;;;5057324;28;20021;-69
2021/12/30 04:24:34;;;;;;;53.58;9.65;;;8.70;99.90;;;;;;5057849;28;20031;-69
2021/12/30 04:26:59;;;;;;;51.75;8.60;;;8.70;99.90;;;;;;5057672;28;20021;-69
2021/12/30 04:29:25;;;;;;;47.97;9.80;;;8.70;99.90;;;;;;5057699;28;20398;-69
2021/12/30 04:31:51;;;;;;;38.17;8.68;;;8.70;99.90;;;;;;5058574;28;20462;-70
2021/12/30 04:34:17;;;;;;;46.30;9.55;;;8.60;99.90;;;;;;5058426;28;20025;-68
2021/12/30 04:36:43;;;;;;;60.88;9.43;;;8.60;99.90;;;;;;5057796;28;20029;-69
2021/12/30 04:39:09;;;;;;;47.83;10.07;;;8.70;99.90;;;;;;5058223;28;20525;-70
2021/12/30 04:41:35;;;;;;;52.75;9.93;;;8.60;99.90;;;;;;5058468;28;20114;-69
2021/12/30 04:44:03;;;;;;;53.50;9.57;;;8.70;99.90;;;;;;5057568;28;20055;-69
2021/12/30 04:46:29;;;;;;;46.80;10.07;;;8.70;99.90;;;;;;5056667;28;20500;-69
2021/12/30 04:48:55;;;;;;;57.78;9.75;;;8.70;99.90;;;;;;5056973;28;20029;-69
2021/12/30 04:51:20;;;;;;;54.50;12.27;;;8.80;99.90;;;;;;5058168;28;20040;-70
2021/12/30 04:53:47;;;;;;;61.53;13.25;;;8.90;99.90;;;;;;5058419;28;20025;-69
2021/12/30 04:56:13;;;;;;;61.53;13.60;;;8.90;99.90;;;;;;5057545;28;20013;-68
2021/12/30 04:58:38;;;;;;;60.97;14.63;;;9.00;99.90;;;;;;5059995;28;20036;-70
2021/12/30 05:01:04;;;;;;;63.50;14.93;;;9.00;99.90;;;;;;5059305;28;20040;-69
2021/12/30 05:03:30;;;;;;;59.40;13.55;;;9.10;99.90;;;;;;5039555;28;20048;-69
2021/12/30 05:05:56;;;;;;;49.58;14.07;;;9.00;99.90;;;;;;5057151;28;20036;-69
2021/12/30 05:08:25;;;;;;;71.13;15.98;;;9.10;99.90;;;;;;5056204;28;20398;-69
2021/12/30 05:10:51;;;;;;;63.63;14.60;;;9.10;99.90;;;;;;5055806;28;20115;-68
2021/12/30 05:13:18;;;;;;;57.03;14.23;;;9.10;99.90;;;;;;5056931;28;20033;-69
2021/12/30 05:15:46;;;;;;;56.58;14.07;;;9.10;99.90;;;;;;5040888;28;20146;-69
2021/12/30 05:18:13;;;;;;;58.35;14.82;;;9.10;99.90;;;;;;5056787;28;20092;-69
2021/12/30 05:20:39;;;;;;;72.80;16.33;;;9.20;99.90;;;;;;5056409;28;20041;-69
2021/12/30 05:23:06;;;;;;;61.65;15.52;;;9.20;99.90;;;;;;5038977;28;20056;-69
2021/12/30 05:25:32;;;;;;;49.60;14.93;;;9.20;99.90;;;;;;5057371;28;20044;-69
2021/12/30 05:27:58;;;;;;;60.63;18.60;;;9.20;99.90;;;;;;5058192;28;20513;-70
2021/12/30 05:30:24;;;;;;;62.15;16.83;;;9.30;99.90;;;;;;5040220;28;20393;-70
2021/12/30 05:32:52;;;;;;;69.93;16.60;;;9.30;99.90;;;;;;5058391;28;20021;-69
2021/12/30 05:35:18;;;;;;;55.10;16.25;;;9.30;99.90;;;;;;5057837;28;20056;-69
2021/12/30 05:37:44;;;;;;;62.97;16.92;;;9.30;99.90;;;;;;5056199;28;20025;-69
2021/12/30 05:40:13;;;;;;;61.97;16.70;;;9.30;99.90;;;;;;5038330;28;20394;-68
2021/12/30 05:42:39;;;;;;;53.83;16.45;;;9.30;99.90;;;;;;5056132;28;20114;-69
2021/12/30 05:45:06;;;;;;;62.72;17.48;;;9.40;99.90;;;;;;5056519;28;20021;-69
2021/12/30 05:47:33;;;;;;;63.25;17.45;;;9.30;99.90;;;;;;5056146;28;20025;-69
2021/12/30 05:50:00;;;;;;;65.82;15.98;;;9.30;99.90;;;;;;5056416;28;20021;-69
2021/12/30 05:52:25;;;;;;;62.60;18.50;;;9.40;99.90;;;;;;5056539;28;20031;-69
2021/12/30 05:54:51;;;;;;;64.55;17.00;;;9.40;99.90;;;;;;5056200;28;20029;-69
2021/12/30 05:57:16;;;;;;;72.72;19.13;;;9.40;99.90;;;;;;5056333;28;20489;-69
2021/12/30 05:59:42;;;;;;;57.78;18.02;;;9.40;99.90;;;;;;5056411;28;20021;-70
2021/12/30 06:02:07;;;;;;;52.55;18.20;;;9.50;99.90;;;;;;5037924;28;20082;-69
2021/12/30 06:04:33;;;;;;;58.38;17.70;;;9.50;99.90;;;;;;5057450;28;20370;-69
2021/12/30 06:06:58;;;;;;;76.25;18.52;;;9.50;99.90;;;;;;5060317;28;20101;-69
2021/12/30 06:09:25;;;;;;;64.55;18.08;;;9.50;99.90;;;;;;5056087;28;20029;-69
2021/12/30 06:11:52;;;;;;;68.88;18.27;;;9.50;99.90;;;;;;5054972;28;20031;-69
2021/12/30 06:14:17;;;;;;;64.28;17.83;;;9.60;99.90;;;;;;5055460;28;20028;-69
2021/12/30 06:16:44;;;;;;;62.60;18.45;;;9.60;99.90;;;;;;5055722;28;20040;-69
2021/12/30 06:19:09;;;;;;;71.65;19.20;;;9.60;99.90;;;;;;5055477;28;20017;-69
2021/12/30 06:21:35;;;;;;;69.43;19.58;;;9.60;99.90;;;;;;5055398;28;20431;-69
2021/12/30 06:24:01;;;;;;;63.30;18.85;;;9.60;99.90;;;;;;5056618;28;20079;-69
2021/12/30 06:26:26;;;;;;;72.75;20.75;;;9.60;99.90;;;;;;5059189;28;20053;-70
2021/12/30 06:28:52;;;;;;;61.58;18.95;;;9.60;99.90;;;;;;5056299;28;20441;-69
2021/12/30 06:31:18;;;;;;;63.35;18.52;;;9.60;99.90;;;;;;5055380;28;20075;-69
2021/12/30 06:33:43;;;;;;;58.78;19.25;;;9.60;99.90;;;;;;5055523;28;20132;-69
2021/12/30 06:36:09;;;;;;;71.28;19.70;;;9.70;99.90;;;;;;5056273;28;20489;-69
2021/12/30 06:38:35;;;;;;;73.07;19.42;;;9.70;99.90;;;;;;5056984;28;20537;-68
2021/12/30 06:41:02;;;;;;;64.85;17.80;;;9.70;99.90;;;;;;5055325;28;20033;-69
2021/12/30 06:43:27;;;;;;;66.63;18.33;;;9.70;99.90;;;;;;5055433;28;20025;-69
2021/12/30 06:45:53;;;;;;;64.45;20.42;;;9.70;99.90;;;;;;5055008;28;20546;-69
2021/12/30 06:48:18;;;;;;;69.05;20.00;;;9.70;99.90;;;;;;5054864;28;20447;-69
2021/12/30 06:50:53;;;;;;;67.60;21.40;;;9.80;99.90;;;;;;5036824;28;20025;-69
2021/12/30 06:53:23;;;;;;;61.70;18.65;;;9.90;99.90;;;;;;5054605;28;20047;-69
2021/12/30 06:55:50;;;;;;;70.97;20.08;;;9.90;99.90;;;;;;5054783;28;20021;-69
2021/12/30 06:58:16;;;;;;;68.30;20.52;;;9.90;99.90;;;;;;5055028;28;20108;-69
2021/12/30 07:00:43;;;;;;;73.80;21.48;;;9.90;99.90;;;;;;5055630;28;20079;-69
2021/12/30 07:03:08;;;;;;;72.53;22.02;;;9.90;99.90;;;;;;5055098;28;20025;-67
2021/12/30 07:05:34;;;;;;;67.50;21.95;;;10.00;99.90;;;;;;5055160;28;20114;-69
2021/12/30 07:08:00;;;;;;;70.88;20.92;;;10.00;99.90;;;;;;5055401;28;20489;-69
2021/12/30 07:10:27;;;;;;;61.05;21.33;;;10.00;99.90;;;;;;5056216;28;20079;-69
2021/12/30 07:12:52;;;;;;;54.42;20.30;;;10.00;99.90;;;;;;5056012;28;20182;-70
2021/12/30 07:15:18;;;;;;;55.33;20.50;;;10.00;99.90;;;;;;5036636;28;20029;-68
2021/12/30 07:17:43;;;;;;;61.65;20.77;;;9.90;99.90;;;;;;5054698;28;20386;-68
2021/12/30 07:20:10;;;;;;;57.63;20.63;;;9.90;99.90;;;;;;5050119;28;20021;-68
2021/12/30 07:22:36;;;;;;;70.03;22.80;;;9.90;99.90;;;;;;5027806;28;20070;-69
2021/12/30 07:25:02;;;;;;;85.78;21.55;;;10.00;99.90;;;;;;5045486;28;20099;-70
2021/12/30 07:29:58;;;;;;;72.70;22.15;;;10.00;99.90;;;;;;5102602;22;20051;-71
2021/12/30 07:32:25;;;;;;;72.45;22.35;;;10.10;99.90;;;;;;5084027;28;20020;-71
2021/12/30 07:34:50;;;;;;;61.38;19.70;;;10.10;99.90;;;;;;5086851;28;20055;-71
2021/12/30 07:37:16;;;;;;;72.68;22.77;;;10.10;99.90;;;;;;5091171;28;20066;-71
2021/12/30 07:39:43;;;;;;;75.05;21.27;;;10.20;99.90;;;;;;5096916;28;20024;-71
2021/12/30 07:42:09;;;;;;;67.70;20.38;;;10.10;99.90;;;;;;5096636;28;20097;-71
2021/12/30 07:44:34;;;;;;;63.03;21.13;;;10.10;99.90;;;;;;5078703;28;20020;-71
2021/12/30 07:47:00;;;;;;;72.43;20.88;;;10.20;99.90;;;;;;5096941;28;20042;-71
2021/12/30 07:49:25;;;;;;;65.20;19.25;;;10.20;99.90;;;;;;5097142;28;20020;-71
2021/12/30 07:51:51;;;;;;;59.38;20.85;;;10.20;99.90;;;;;;5096541;28;20503;-71
2021/12/30 07:54:17;;;;;;;74.75;20.23;;;10.20;99.90;;;;;;5096607;28;20024;-71
2021/12/30 07:56:42;;;;;;;67.35;20.80;;;10.20;99.90;;;;;;5096628;28;20518;-71
2021/12/30 07:59:08;;;;;;;69.03;21.67;;;10.20;99.90;;;;;;5096751;28;20081;-71
2021/12/30 08:01:33;;;;;;;55.40;19.98;;;10.20;99.90;;;;;;5096438;28;20024;-75
2021/12/30 08:03:59;;;;;;;77.95;22.00;;;10.20;99.90;;;;;;5096668;28;20024;-73
2021/12/30 08:06:27;;;;;;;76.10;20.65;;;10.20;99.90;;;;;;5096760;28;20028;-71
2021/12/30 08:08:53;;;;;;;66.35;19.20;;;10.20;99.90;;;;;;5094999;28;20023;-70
2021/12/30 08:11:18;;;;;;;64.70;19.17;;;10.30;99.90;;;;;;5094659;28;20393;-71
2021/12/30 08:13:44;;;;;;;57.90;20.15;;;10.30;99.90;;;;;;5077575;28;20032;-71
2021/12/30 08:16:09;;;;;;;63.75;20.05;;;10.30;99.90;;;;;;5096242;28;20107;-71
2021/12/30 08:18:35;;;;;;;69.15;20.63;;;10.20;99.90;;;;;;5096140;28;20067;-72
2021/12/30 08:21:01;;;;;;;49.70;19.20;;;10.30;99.90;;;;;;5096010;28;20056;-72
2021/12/30 08:23:26;;;;;;;62.72;18.85;;;10.30;99.90;;;;;;5096048;28;20499;-72
2021/12/30 08:25:52;;;;;;;66.13;21.45;;;10.40;99.90;;;;;;5096776;28;20084;-71
2021/12/30 08:28:18;;;;;;;69.22;20.25;;;10.30;99.90;;;;;;5098167;28;20086;-71
2021/12/30 08:30:44;;;;;;;69.65;22.33;;;10.40;99.90;;;;;;5098280;28;20047;-71
2021/12/30 08:33:10;;;;;;;81.10;21.30;;;10.40;99.90;;;;;;5096891;28;20420;-71
2021/12/30 08:35:35;;;;;;;58.22;21.45;;;10.40;99.90;;;;;;5096776;28;20024;-71
2021/12/30 08:38:01;;;;;;;61.55;20.67;;;10.50;99.90;;;;;;5097111;28;20425;-69
2021/12/30 08:40:27;;;;;;;62.70;21.02;;;10.40;99.90;;;;;;5079646;28;20082;-71
2021/12/30 08:42:53;;;;;;;61.05;20.60;;;10.50;99.90;;;;;;5103402;28;20469;-71
2021/12/30 08:45:19;;;;;;;63.75;19.92;;;10.50;99.90;;;;;;5111389;28;20016;-71
2021/12/30 08:47:45;;;;;;;59.67;20.70;;;10.60;99.90;;;;;;5099950;28;20020;-71
2021/12/30 08:50:13;;;;;;;61.60;21.27;;;10.70;99.90;;;;;;5096412;28;20031;-71
2021/12/30 08:52:40;;;;;;;57.55;20.70;;;10.70;99.90;;;;;;5096787;28;20466;-71
2021/12/30 08:55:06;;;;;;;66.85;21.98;;;10.80;99.90;;;;;;5096369;28;20039;-71
2021/12/30 08:57:34;;;;;;;66.63;22.48;;;10.80;99.90;;;;;;5103661;28;20016;-70
2021/12/30 09:00:00;;;;;;;56.78;20.55;;;10.90;99.90;;;;;;5103313;28;20020;-71
2021/12/30 09:02:25;;;;;;;62.40;21.63;;;10.80;99.90;;;;;;5097211;28;20078;-72
2021/12/30 09:04:51;;;;;;;53.38;20.88;;;10.90;99.90;;;;;;5103893;28;20020;-72
2021/12/30 09:07:18;;;;;;;50.53;19.40;;;11.00;99.90;;;;;;5102773;28;20461;-70
2021/12/30 09:09:45;;;;;;;56.63;19.63;;;11.00;99.90;;;;;;5095951;28;20016;-69
2021/12/30 09:12:11;;;;;;;48.92;19.42;;;11.10;99.90;;;;;;5095781;28;20020;-71
2021/12/30 09:14:37;;;;;;;43.92;18.60;;;11.20;99.90;;;;;;5095800;28;20020;-69
2021/12/30 09:17:03;;;;;;;52.47;18.13;;;11.20;99.90;;;;;;5096023;28;20032;-70
2021/12/30 09:19:29;;;;;;;47.15;17.77;;;11.30;99.90;;;;;;5096193;28;20050;-71
2021/12/30 09:21:56;;;;;;;46.47;17.05;;;11.30;99.90;;;;;;5095243;28;20036;-72
2021/12/30 09:24:22;;;;;;;40.45;16.38;;;11.30;99.90;;;;;;5095495;28;20116;-72
2021/12/30 09:26:47;;;;;;;44.22;17.25;;;11.30;99.90;;;;;;5095603;28;20060;-72
2021/12/30 09:29:13;;;;;;;38.00;16.02;;;11.40;99.90;;;;;;5095029;28;20093;-70
2021/12/30 09:31:45;;;;;;;38.55;16.00;;;11.50;99.90;;;;;;5095745;28;20103;-72
2021/12/30 09:34:11;;;;;;;40.60;15.18;;;11.50;99.90;;;;;;5095267;28;20470;-73
2021/12/30 09:36:36;;;;;;;37.58;16.13;;;11.50;99.90;;;;;;5095602;28;20126;-72
2021/12/30 09:39:05;;;;;;;32.10;14.98;;;11.50;99.90;;;;;;5076430;28;20028;-72
2021/12/30 09:41:31;;;;;;;35.22;15.77;;;11.60;99.90;;;;;;5095074;28;20442;-72
2021/12/30 09:43:57;;;;;;;35.70;13.95;;;11.70;99.90;;;;;;5094619;28;20027;-71
2021/12/30 09:46:23;;;;;;;35.30;14.43;;;11.70;99.90;;;;;;5094724;28;20031;-72
2021/12/30 09:48:49;;;;;;;30.40;13.93;;;11.70;99.90;;;;;;5094909;28;20024;-71
2021/12/30 09:51:15;;;;;;;30.52;13.32;;;11.80;99.90;;;;;;5096197;28;20110;-71
2021/12/30 09:53:40;;;;;;;30.25;13.07;;;11.80;99.90;;;;;;5094399;28;20030;-71
2021/12/30 09:56:06;;;;;;;30.08;13.63;;;11.80;99.90;;;;;;5093835;28;20477;-70
2021/12/30 09:58:32;;;;;;;31.13;13.30;;;11.80;99.90;;;;;;5095469;28;20351;-69
2021/12/30 10:00:59;;;;;;;26.85;12.02;;;11.80;99.90;;;;;;5095124;28;20481;-72
2021/12/30 10:03:25;;;;;;;24.38;12.55;;;11.90;99.90;;;;;;5094929;28;20028;-72
2021/12/30 10:05:51;;;;;;;20.35;10.70;;;11.90;99.90;;;;;;5094857;28;20024;-72
2021/12/30 10:08:20;;;;;;;24.88;11.43;;;11.90;99.90;;;;;;5094574;28;20024;-72
2021/12/30 10:10:49;;;;;;;20.30;10.45;;;12.00;99.90;;;;;;5076511;28;20119;-72
2021/12/30 10:13:20;;;;;;;22.30;11.10;;;11.90;99.90;;;;;;5094507;28;20023;-72
2021/12/30 10:15:49;;;;;;;20.50;9.32;;;12.00;99.90;;;;;;5094790;28;20087;-71
2021/12/30 10:18:15;;;;;;;16.98;8.50;;;12.00;99.90;;;;;;5076243;28;20115;-71
2021/12/30 10:20:42;;;;;;;15.68;8.45;;;12.00;99.90;;;;;;5096601;28;20034;-70
2021/12/30 10:23:11;;;;;;;17.38;8.55;;;12.00;99.90;;;;;;5095483;28;20357;-70
2021/12/30 10:25:39;;;;;;;15.32;8.23;;;12.10;99.90;;;;;;5095426;28;20015;-70
2021/12/30 10:28:43;;;;;;;21.05;8.13;;;12.10;99.90;;;;;;5076286;28;20032;-69
2021/12/30 10:31:12;;;;;;;13.25;6.50;;;12.10;99.90;;;;;;4992512;28;20022;-71
2021/12/30 10:33:49;;;;;;;12.90;6.75;;;12.10;99.90;;;;;;5077151;28;20102;-71
2021/12/30 10:36:16;;;;;;;11.45;5.95;;;12.20;99.90;;;;;;5076003;28;20050;-71
2021/12/30 10:38:42;;;;;;;11.95;5.82;;;12.20;99.90;;;;;;5094058;28;20446;-70
2021/12/30 10:41:08;;;;;;;13.57;6.15;;;12.20;99.90;;;;;;5093989;28;20024;-71
2021/12/30 10:46:25;;;;;;;9.02;5.57;;;12.30;99.90;;;;;;5093899;28;20028;-70
2021/12/30 10:48:57;;;;;;;10.73;5.43;;;12.20;99.90;;;;;;5080517;28;20537;-70
2021/12/30 10:51:42;;;;;;;8.00;5.40;;;12.30;99.90;;;;;;5094073;28;20048;-70
2021/12/30 10:54:10;;;;;;;11.15;4.97;;;12.30;99.90;;;;;;5094967;28;20024;-72
2021/12/30 10:56:38;;;;;;;8.57;5.25;;;12.30;99.90;;;;;;5094339;28;20031;-72
2021/12/30 10:59:25;;;;;;;8.95;5.10;;;12.30;99.90;;;;;;5094787;28;20107;-71
2021/12/30 11:02:12;;;;;;;8.48;4.75;;;12.30;99.90;;;;;;5099446;28;20020;-72
2021/12/30 11:04:42;;;;;;;10.23;4.95;;;12.40;99.90;;;;;;5098297;28;20110;-71
2021/12/30 11:07:11;;;;;;;8.90;5.20;;;12.40;99.90;;;;;;5096524;28;20051;-72
2021/12/30 11:09:44;;;;;;;5.93;4.70;;;12.40;99.90;;;;;;5110325;28;20039;-72
2021/12/30 11:12:10;;;;;;;10.60;5.05;;;12.30;99.90;;;;;;5102336;28;20051;-71
2021/12/30 11:14:37;;;;;;;8.82;5.40;;;12.40;99.90;;;;;;5098551;28;20512;-71
2021/12/30 11:17:19;;;;;;;8.25;5.45;;;12.40;99.90;;;;;;5098443;28;20046;-71
2021/12/30 11:19:47;;;;;;;7.55;5.38;;;12.40;99.90;;;;;;5098497;28;20017;-72
2021/12/30 11:22:15;;;;;;;10.45;5.00;;;12.50;99.90;;;;;;5098300;28;20380;-72
2021/12/30 11:24:43;;;;;;;7.95;5.15;;;12.50;99.90;;;;;;5097772;28;20031;-72
2021/12/30 11:27:10;;;;;;;7.90;5.38;;;12.50;99.90;;;;;;5097786;28;20024;-72
2021/12/30 11:29:37;;;;;;;8.40;5.10;;;12.50;99.90;;;;;;5098300;28;20051;-71
2021/12/30 11:32:05;;;;;;;9.82;6.32;;;12.50;99.90;;;;;;5104321;28;20020;-71
2021/12/30 11:34:30;;;;;;;8.10;5.55;;;12.50;99.90;;;;;;5113395;28;20016;-72
2021/12/30 11:36:56;;;;;;;9.63;5.53;;;12.60;99.90;;;;;;5102010;28;20060;-72
2021/12/30 11:39:24;;;;;;;7.32;5.55;;;12.60;99.90;;;;;;5097936;28;20031;-72
2021/12/30 11:42:05;;;;;;;7.55;5.93;;;12.60;99.90;;;;;;5079833;28;20397;-72
2021/12/30 11:44:36;;;;;;;8.10;5.93;;;12.60;99.90;;;;;;5097999;28;20105;-72
2021/12/30 11:47:02;;;;;;;6.82;5.15;;;12.60;99.90;;;;;;5098195;28;20024;-71
2021/12/30 11:49:52;;;;;;;6.80;5.20;;;12.60;99.90;;;;;;5098078;28;20024;-70
2021/12/30 11:52:51;;;;;;;8.93;5.47;;;12.60;99.90;;;;;;5081683;28;20028;-71
2021/12/30 11:55:40;;;;;;;6.15;5.05;;;12.70;99.90;;;;;;5098058;28;20391;-72
2021/12/30 11:58:27;;;;;;;10.85;5.80;;;12.60;99.90;;;;;;5098698;28;20099;-72
2021/12/30 12:00:58;;;;;;;10.25;5.57;;;12.70;99.90;;;;;;5098576;28;20028;-71
2021/12/30 12:03:28;;;;;;;7.80;5.97;;;12.60;99.90;;;;;;5079689;28;20537;-70
2021/12/30 12:05:54;;;;;;;7.40;5.93;;;12.70;99.90;;;;;;5097743;28;20031;-70
2021/12/30 12:08:20;;;;;;;8.13;6.50;;;12.70;99.90;;;;;;5098060;28;20032;-71
2021/12/30 12:11:13;;;;;;;9.38;6.45;;;12.70;99.90;;;;;;5097934;28;20027;-70
2021/12/30 12:13:40;;;;;;;11.27;7.65;;;12.70;99.90;;;;;;5079831;28;20023;-71
2021/12/30 12:16:06;;;;;;;10.00;7.35;;;12.70;99.90;;;;;;5109793;28;20032;-70
2021/12/30 12:18:32;;;;;;;11.63;7.30;;;12.80;99.90;;;;;;5119558;27;20084;-71
2021/12/30 12:21:01;;;;;;;10.02;8.02;;;12.70;99.90;;;;;;5088114;28;20024;-70
2021/12/30 12:23:42;;;;;;;11.02;8.90;;;12.80;99.90;;;;;;5096737;28;20027;-70
2021/12/30 12:26:16;;;;;;;10.05;8.10;;;12.70;99.90;;;;;;5079276;28;20027;-71
2021/12/30 12:28:42;;;;;;;11.43;8.63;;;12.70;99.90;;;;;;5097123;28;20439;-71
2021/12/30 12:31:10;;;;;;;11.57;8.50;;;12.80;99.90;;;;;;5096905;28;20084;-70
2021/12/30 12:33:39;;;;;;;11.60;8.63;;;12.70;99.90;;;;;;5096336;28;20519;-69
2021/12/30 12:36:18;;;;;;;12.95;8.93;;;12.80;99.90;;;;;;5096691;28;20027;-71
2021/12/30 12:38:51;;;;;;;10.55;8.57;;;12.70;99.90;;;;;;5096173;28;20069;-71
2021/12/30 12:41:19;;;;;;;10.82;8.60;;;12.80;99.90;;;;;;5096574;28;20028;-70
2021/12/30 12:43:48;;;;;;;10.60;8.40;;;12.80;99.90;;;;;;5095532;28;20024;-71